Time;durP1;ratioP1;P1;durP2;ratioP2;P2;SDS_P1;SDS_P2;PMS_P1;PMS_P2;Temp;Humidity;BMP_temperature;BMP_pressure;BME280_temperature;BME280_humidity;BME280_pressure;Samples;Min_cycle;Max_cycle;Signal;HPM_P1;HPM_P2
2021/01/18 10:35:19;;;;;;;;;;;;;;;;;;5070727;28;20509;-53
2021/01/18 10:37:45;;;;;;;;;;;;;;;;;;5060536;28;20003;-56
2021/01/18 10:40:12;;;;;;;;;;;;;;;;;;5052228;28;19964;-56
2021/01/18 10:42:38;;;;;;;;;;;;;;;;;;5051627;28;20424;-54
2021/01/18 10:45:04;;;;;;;;;;;;;;;;;;5049217;28;19955;-53
2021/01/18 10:47:31;;;;;;;;;;;;;;;;;;5052406;28;19920;-53
2021/01/18 10:50:00;;;;;;;;;;;;;;;;;;5052687;28;19922;-51
2021/01/18 10:52:29;;;;;;;;;;;;;;;;;;5051780;28;19971;-50
2021/01/18 10:54:55;;;;;;;;;;;;;;;;;;5053335;28;19960;-55
2021/01/18 10:57:21;;;;;;;;;;;;;;;;;;5053065;28;19959;-56
2021/01/18 11:01:58;;;;;;;;;;;;;;;;;;5091142;27;19934;-55
2021/01/18 11:04:24;;;;;;;;;;;;;;;;;;5092331;28;19919;-51
2021/01/18 11:06:50;;;;;;;;;;;;;;;;;;5087648;28;19921;-60
2021/01/18 11:09:17;;;;;;;;;;;;;;;;;;5072784;28;19917;-52
2021/01/18 11:11:42;;;;;;;;;;;;;;;;;;5073383;28;20340;-59
2021/01/18 11:14:09;;;;;;;;;;;;;;;;;;5071250;28;20514;-54
2021/01/18 11:16:35;;;;;;;;;;;;;;;;;;5072582;28;19912;-53
2021/01/18 11:19:01;;;;;;;;;;;;;;;;;;5071599;28;20339;-58
2021/01/18 11:21:27;;;;;;;;;;;;;;;;;;5072732;28;19920;-57
2021/01/18 11:23:52;;;;;;;;;;;;;;;;;;5072252;28;19975;-59
2021/01/18 11:26:18;;;;;;;;;;;;;;;;;;5070553;28;20387;-55
2021/01/18 11:28:45;;;;;;;;;;;;;;;;;;5072975;28;19916;-54
2021/01/18 11:31:11;;;;;;;;;;;;;;;;;;5072735;28;19946;-49
2021/01/18 11:33:37;;;;;;;;;;;;;;;;;;5072433;28;19917;-51
2021/01/18 11:36:03;;;;;;;;;;;;;;;;;;5073079;28;20299;-57
2021/01/18 11:38:29;;;;;;;;;;;;;;;;;;5073288;28;19920;-57
2021/01/18 11:40:55;;;;;;;;;;;;;;;;;;5070620;28;19925;-52
2021/01/18 11:43:21;;;;;;;;;;;;;;;;;;5071298;28;20491;-55
2021/01/18 11:45:48;;;;;;;;;;;;;;;;;;5071885;28;19931;-52
2021/01/18 11:48:14;;;;;;;;;;;;;;;;;;5071636;28;19916;-51
2021/01/18 11:50:39;;;;;;;;;;;;;;;;;;5072514;28;19948;-53
2021/01/18 11:53:07;;;;;;;;;;;;;;;;;;5073108;28;19920;-53
2021/01/18 11:55:33;;;;;;;;;;;;;;;;;;5070771;28;19970;-53
2021/01/18 11:57:59;;;;;;;;;;;;;;;;;;5071897;28;19921;-54
2021/01/18 12:00:25;;;;;;;;;;;;;;;;;;5079993;28;20316;-54
2021/01/18 12:02:51;;;;;;;;;;;;;;;;;;5089262;28;19916;-52
2021/01/18 12:05:18;;;;;;;;;;;;;;;;;;5092820;28;19920;-54
2021/01/18 12:07:43;;;;;;;;;;;;;;;;;;5091764;28;19954;-50
2021/01/18 12:10:09;;;;;;;;;;;;;;;;;;5093248;28;19912;-52
2021/01/18 12:12:36;;;;;;;;;;;;;;;;;;5082133;28;19991;-54
2021/01/18 12:15:01;;;;;;;;;;;;;;;;;;5079128;28;20054;-54
2021/01/18 12:17:27;;;;;;;;;;;;;;;;;;5075187;28;19921;-53
2021/01/18 12:19:53;;;;;;;;;;;;;;;;;;5078423;28;19983;-52
2021/01/18 12:22:19;;;;;;;;;;;;;;;;;;5079283;28;19913;-55
2021/01/18 12:24:46;;;;;;;;;;;;;;;;;;5077679;28;20337;-57
2021/01/18 12:27:12;;;;;;;;;;;;;;;;;;5077382;28;19912;-59
2021/01/18 12:29:37;;;;;;;;;;;;;;;;;;5071874;28;19931;-56
2021/01/18 12:32:04;;;;;;;;;;;;;;;;;;5078011;28;19943;-52
2021/01/18 12:34:30;;;;;;;;;;;;;;;;;;5077045;28;20382;-56
2021/01/18 12:36:56;;;;;;;;;;;;;;;;;;5078302;28;19916;-52
2021/01/18 12:39:22;;;;;;;;;;;;;;;;;;5079216;28;19969;-55
2021/01/18 12:41:49;;;;;;;;;;;;;;;;;;5077167;28;19945;-59
2021/01/18 12:44:15;;;;;;;;;;;;;;;;;;4998726;28;20131;-52
2021/01/18 12:46:41;;;;;;;;;;;;;;;;;;4798661;28;276170;-53
2021/01/18 12:49:07;;;;;;;;;;;;;;;;;;4894167;28;73939;-51
2021/01/18 12:51:34;;;;;;;;;;;;;;;;;;5053841;28;19912;-54
2021/01/18 12:53:59;;;;;;;;;;;;;;;;;;5055784;28;20294;-55
2021/01/18 12:56:28;;;;;;;;;;;;;;;;;;5057572;28;19913;-50
